sensor_id;sensor_type;location;lat;lon;timestamp;P1;durP1;ratioP1;P2;durP2;ratioP2
64938;SDS011;51453;47.738;7.420;2022-09-30T00:01:32;8.07;;;4.57;;
64938;SDS011;51453;47.738;7.420;2022-09-30T00:03:58;7.25;;;4.63;;
64938;SDS011;51453;47.738;7.420;2022-09-30T00:06:25;6.80;;;4.47;;
64938;SDS011;51453;47.738;7.420;2022-09-30T00:08:53;7.72;;;4.43;;
64938;SDS011;51453;47.738;7.420;2022-09-30T00:11:21;6.65;;;4.32;;
64938;SDS011;51453;47.738;7.420;2022-09-30T00:13:53;5.75;;;3.63;;
64938;SDS011;51453;47.738;7.420;2022-09-30T00:16:20;6.47;;;3.05;;
64938;SDS011;51453;47.738;7.420;2022-09-30T00:18:46;3.90;;;2.90;;
64938;SDS011;51453;47.738;7.420;2022-09-30T00:21:13;4.07;;;2.65;;
64938;SDS011;51453;47.738;7.420;2022-09-30T00:23:40;3.65;;;2.88;;
64938;SDS011;51453;47.738;7.420;2022-09-30T00:26:08;4.28;;;2.55;;
64938;SDS011;51453;47.738;7.420;2022-09-30T00:28:37;3.22;;;2.17;;
64938;SDS011;51453;47.738;7.420;2022-09-30T00:31:04;3.85;;;2.88;;
64938;SDS011;51453;47.738;7.420;2022-09-30T00:33:32;3.72;;;2.55;;
64938;SDS011;51453;47.738;7.420;2022-09-30T00:35:59;3.65;;;2.60;;
64938;SDS011;51453;47.738;7.420;2022-09-30T00:38:25;5.20;;;2.83;;
64938;SDS011;51453;47.738;7.420;2022-09-30T00:40:51;4.40;;;2.90;;
64938;SDS011;51453;47.738;7.420;2022-09-30T00:43:19;4.15;;;2.67;;
64938;SDS011;51453;47.738;7.420;2022-09-30T00:46:04;3.50;;;2.70;;
64938;SDS011;51453;47.738;7.420;2022-09-30T00:48:34;5.07;;;2.85;;
64938;SDS011;51453;47.738;7.420;2022-09-30T00:51:03;3.90;;;2.80;;
64938;SDS011;51453;47.738;7.420;2022-09-30T00:56:09;3.13;;;2.50;;
64938;SDS011;51453;47.738;7.420;2022-09-30T00:58:38;3.42;;;3.00;;
64938;SDS011;51453;47.738;7.420;2022-09-30T01:01:18;5.80;;;3.10;;
64938;SDS011;51453;47.738;7.420;2022-09-30T01:03:50;5.00;;;3.20;;
64938;SDS011;51453;47.738;7.420;2022-09-30T01:06:22;6.72;;;3.17;;
64938;SDS011;51453;47.738;7.420;2022-09-30T01:08:48;5.00;;;3.35;;
64938;SDS011;51453;47.738;7.420;2022-09-30T01:11:15;7.53;;;3.38;;
64938;SDS011;51453;47.738;7.420;2022-09-30T01:13:41;3.42;;;3.05;;
64938;SDS011;51453;47.738;7.420;2022-09-30T01:16:27;5.50;;;3.63;;
64938;SDS011;51453;47.738;7.420;2022-09-30T01:19:19;5.45;;;3.80;;
64938;SDS011;51453;47.738;7.420;2022-09-30T01:21:56;7.50;;;4.40;;
64938;SDS011;51453;47.738;7.420;2022-09-30T01:35:04;5.07;;;3.38;;
64938;SDS011;51453;47.738;7.420;2022-09-30T01:41:09;7.30;;;3.92;;
64938;SDS011;51453;47.738;7.420;2022-09-30T01:43:26;10.48;;;4.32;;
64938;SDS011;51453;47.738;7.420;2022-09-30T01:46:31;7.15;;;4.65;;
64938;SDS011;51453;47.738;7.420;2022-09-30T01:51:34;9.23;;;5.10;;
64938;SDS011;51453;47.738;7.420;2022-09-30T01:54:22;9.30;;;4.80;;
64938;SDS011;51453;47.738;7.420;2022-09-30T01:56:54;6.53;;;4.28;;
64938;SDS011;51453;47.738;7.420;2022-09-30T01:59:36;13.43;;;5.55;;
64938;SDS011;51453;47.738;7.420;2022-09-30T02:02:11;8.98;;;4.80;;
64938;SDS011;51453;47.738;7.420;2022-09-30T02:04:52;8.63;;;5.57;;
64938;SDS011;51453;47.738;7.420;2022-09-30T02:07:29;8.85;;;5.70;;
64938;SDS011;51453;47.738;7.420;2022-09-30T02:10:06;9.57;;;5.03;;
64938;SDS011;51453;47.738;7.420;2022-09-30T02:12:39;9.75;;;4.78;;
64938;SDS011;51453;47.738;7.420;2022-09-30T02:15:12;10.00;;;5.32;;
64938;SDS011;51453;47.738;7.420;2022-09-30T02:20:14;10.02;;;5.10;;
64938;SDS011;51453;47.738;7.420;2022-09-30T02:23:05;9.70;;;5.55;;
64938;SDS011;51453;47.738;7.420;2022-09-30T02:25:51;9.05;;;5.38;;
64938;SDS011;51453;47.738;7.420;2022-09-30T02:28:24;9.63;;;6.13;;
64938;SDS011;51453;47.738;7.420;2022-09-30T02:30:53;14.75;;;6.32;;
64938;SDS011;51453;47.738;7.420;2022-09-30T02:33:57;9.68;;;5.85;;
64938;SDS011;51453;47.738;7.420;2022-09-30T02:36:20;7.90;;;5.80;;
64938;SDS011;51453;47.738;7.420;2022-09-30T02:39:02;12.07;;;6.28;;
64938;SDS011;51453;47.738;7.420;2022-09-30T02:41:45;11.18;;;5.63;;
64938;SDS011;51453;47.738;7.420;2022-09-30T02:44:14;9.98;;;6.18;;
64938;SDS011;51453;47.738;7.420;2022-09-30T02:47:00;12.30;;;5.32;;
64938;SDS011;51453;47.738;7.420;2022-09-30T02:52:05;12.57;;;6.97;;
64938;SDS011;51453;47.738;7.420;2022-09-30T02:59:51;17.00;;;7.75;;
64938;SDS011;51453;47.738;7.420;2022-09-30T03:02:18;16.00;;;8.63;;
64938;SDS011;51453;47.738;7.420;2022-09-30T03:04:44;16.63;;;8.02;;
64938;SDS011;51453;47.738;7.420;2022-09-30T03:07:10;19.13;;;8.73;;
64938;SDS011;51453;47.738;7.420;2022-09-30T03:09:37;14.73;;;8.00;;
64938;SDS011;51453;47.738;7.420;2022-09-30T03:17:55;15.43;;;7.25;;
64938;SDS011;51453;47.738;7.420;2022-09-30T03:20:50;12.07;;;6.53;;
64938;SDS011;51453;47.738;7.420;2022-09-30T03:26:17;14.65;;;6.68;;
64938;SDS011;51453;47.738;7.420;2022-09-30T03:34:52;16.27;;;7.57;;
64938;SDS011;51453;47.738;7.420;2022-09-30T03:40:00;14.13;;;7.97;;
64938;SDS011;51453;47.738;7.420;2022-09-30T03:48:18;15.52;;;7.60;;
64938;SDS011;51453;47.738;7.420;2022-09-30T03:50:46;13.40;;;7.78;;
64938;SDS011;51453;47.738;7.420;2022-09-30T03:53:12;14.43;;;7.63;;
64938;SDS011;51453;47.738;7.420;2022-09-30T03:55:45;14.32;;;7.97;;
64938;SDS011;51453;47.738;7.420;2022-09-30T03:58:13;12.32;;;7.75;;
64938;SDS011;51453;47.738;7.420;2022-09-30T04:00:48;12.75;;;7.85;;
64938;SDS011;51453;47.738;7.420;2022-09-30T04:03:17;11.27;;;6.85;;
64938;SDS011;51453;47.738;7.420;2022-09-30T04:05:44;13.30;;;7.75;;
64938;SDS011;51453;47.738;7.420;2022-09-30T04:08:10;12.73;;;7.68;;
64938;SDS011;51453;47.738;7.420;2022-09-30T04:10:38;12.40;;;8.23;;
64938;SDS011;51453;47.738;7.420;2022-09-30T04:13:05;11.13;;;7.50;;
64938;SDS011;51453;47.738;7.420;2022-09-30T04:15:32;10.93;;;7.60;;
64938;SDS011;51453;47.738;7.420;2022-09-30T04:17:58;10.23;;;8.02;;
64938;SDS011;51453;47.738;7.420;2022-09-30T04:20:24;10.63;;;7.95;;
64938;SDS011;51453;47.738;7.420;2022-09-30T04:22:50;11.63;;;7.30;;
64938;SDS011;51453;47.738;7.420;2022-09-30T04:25:15;16.90;;;8.05;;
64938;SDS011;51453;47.738;7.420;2022-09-30T04:27:41;11.70;;;7.20;;
64938;SDS011;51453;47.738;7.420;2022-09-30T04:30:07;16.27;;;8.60;;
64938;SDS011;51453;47.738;7.420;2022-09-30T04:32:33;16.77;;;8.57;;
64938;SDS011;51453;47.738;7.420;2022-09-30T04:34:59;14.43;;;7.82;;
64938;SDS011;51453;47.738;7.420;2022-09-30T04:37:25;10.57;;;7.97;;
64938;SDS011;51453;47.738;7.420;2022-09-30T04:39:50;10.93;;;7.70;;
64938;SDS011;51453;47.738;7.420;2022-09-30T04:42:16;10.60;;;7.50;;
64938;SDS011;51453;47.738;7.420;2022-09-30T04:44:42;12.85;;;7.70;;
64938;SDS011;51453;47.738;7.420;2022-09-30T04:47:08;11.30;;;7.30;;
64938;SDS011;51453;47.738;7.420;2022-09-30T04:49:33;12.10;;;8.43;;
64938;SDS011;51453;47.738;7.420;2022-09-30T04:51:59;11.93;;;7.35;;
64938;SDS011;51453;47.738;7.420;2022-09-30T04:54:25;14.80;;;9.52;;
64938;SDS011;51453;47.738;7.420;2022-09-30T04:56:51;14.27;;;9.10;;
64938;SDS011;51453;47.738;7.420;2022-09-30T04:59:17;12.15;;;8.25;;
64938;SDS011;51453;47.738;7.420;2022-09-30T05:01:42;18.13;;;10.23;;
64938;SDS011;51453;47.738;7.420;2022-09-30T05:04:08;14.98;;;8.52;;
64938;SDS011;51453;47.738;7.420;2022-09-30T05:06:36;13.70;;;9.07;;
64938;SDS011;51453;47.738;7.420;2022-09-30T05:09:04;13.57;;;8.40;;
64938;SDS011;51453;47.738;7.420;2022-09-30T05:11:30;12.65;;;8.38;;
64938;SDS011;51453;47.738;7.420;2022-09-30T05:13:56;16.05;;;9.18;;
64938;SDS011;51453;47.738;7.420;2022-09-30T05:16:22;12.13;;;8.40;;
64938;SDS011;51453;47.738;7.420;2022-09-30T05:18:48;14.32;;;8.85;;
64938;SDS011;51453;47.738;7.420;2022-09-30T05:21:14;15.15;;;8.98;;
64938;SDS011;51453;47.738;7.420;2022-09-30T05:23:43;16.58;;;9.52;;
64938;SDS011;51453;47.738;7.420;2022-09-30T05:26:09;12.50;;;8.60;;
64938;SDS011;51453;47.738;7.420;2022-09-30T05:28:35;18.50;;;9.95;;
64938;SDS011;51453;47.738;7.420;2022-09-30T05:31:01;14.75;;;9.02;;
64938;SDS011;51453;47.738;7.420;2022-09-30T05:33:29;16.20;;;9.50;;
64938;SDS011;51453;47.738;7.420;2022-09-30T05:36:00;19.75;;;10.43;;
64938;SDS011;51453;47.738;7.420;2022-09-30T05:38:28;16.58;;;8.95;;
64938;SDS011;51453;47.738;7.420;2022-09-30T05:40:54;17.92;;;11.00;;
64938;SDS011;51453;47.738;7.420;2022-09-30T05:43:20;16.63;;;9.98;;
64938;SDS011;51453;47.738;7.420;2022-09-30T05:45:53;18.33;;;11.05;;
64938;SDS011;51453;47.738;7.420;2022-09-30T05:48:20;17.50;;;10.55;;
64938;SDS011;51453;47.738;7.420;2022-09-30T05:50:47;17.30;;;11.73;;
64938;SDS011;51453;47.738;7.420;2022-09-30T05:53:15;19.00;;;11.48;;
64938;SDS011;51453;47.738;7.420;2022-09-30T05:55:45;17.33;;;11.70;;
64938;SDS011;51453;47.738;7.420;2022-09-30T05:58:12;21.77;;;13.32;;
64938;SDS011;51453;47.738;7.420;2022-09-30T06:00:41;23.25;;;13.82;;
64938;SDS011;51453;47.738;7.420;2022-09-30T06:03:08;22.65;;;13.25;;
64938;SDS011;51453;47.738;7.420;2022-09-30T06:05:35;21.88;;;14.20;;
64938;SDS011;51453;47.738;7.420;2022-09-30T06:08:01;24.98;;;13.32;;
64938;SDS011;51453;47.738;7.420;2022-09-30T06:10:28;22.23;;;13.57;;
64938;SDS011;51453;47.738;7.420;2022-09-30T06:12:54;18.85;;;12.60;;
64938;SDS011;51453;47.738;7.420;2022-09-30T06:15:19;19.65;;;12.60;;
64938;SDS011;51453;47.738;7.420;2022-09-30T06:17:51;20.23;;;13.18;;
64938;SDS011;51453;47.738;7.420;2022-09-30T06:20:17;21.55;;;13.30;;
64938;SDS011;51453;47.738;7.420;2022-09-30T06:22:43;23.23;;;13.55;;
64938;SDS011;51453;47.738;7.420;2022-09-30T06:25:09;23.63;;;13.68;;
64938;SDS011;51453;47.738;7.420;2022-09-30T06:27:35;23.15;;;13.52;;
64938;SDS011;51453;47.738;7.420;2022-09-30T06:30:04;21.40;;;14.10;;
64938;SDS011;51453;47.738;7.420;2022-09-30T06:32:30;27.15;;;14.13;;
64938;SDS011;51453;47.738;7.420;2022-09-30T06:34:56;20.02;;;13.55;;
64938;SDS011;51453;47.738;7.420;2022-09-30T06:37:22;22.20;;;13.70;;
64938;SDS011;51453;47.738;7.420;2022-09-30T06:39:48;19.13;;;12.63;;
64938;SDS011;51453;47.738;7.420;2022-09-30T06:42:15;26.27;;;15.98;;
64938;SDS011;51453;47.738;7.420;2022-09-30T06:44:41;22.55;;;14.93;;
64938;SDS011;51453;47.738;7.420;2022-09-30T06:47:07;22.70;;;14.32;;
64938;SDS011;51453;47.738;7.420;2022-09-30T06:49:33;22.70;;;13.75;;
64938;SDS011;51453;47.738;7.420;2022-09-30T06:51:59;20.58;;;14.60;;
64938;SDS011;51453;47.738;7.420;2022-09-30T06:54:25;23.33;;;14.93;;
64938;SDS011;51453;47.738;7.420;2022-09-30T06:56:54;21.23;;;14.55;;
64938;SDS011;51453;47.738;7.420;2022-09-30T06:59:22;23.17;;;13.98;;
64938;SDS011;51453;47.738;7.420;2022-09-30T07:01:48;20.88;;;13.73;;
64938;SDS011;51453;47.738;7.420;2022-09-30T07:04:14;26.95;;;14.10;;
64938;SDS011;51453;47.738;7.420;2022-09-30T07:06:40;20.08;;;13.00;;
64938;SDS011;51453;47.738;7.420;2022-09-30T07:09:06;20.40;;;12.93;;
64938;SDS011;51453;47.738;7.420;2022-09-30T07:11:33;17.27;;;12.02;;
64938;SDS011;51453;47.738;7.420;2022-09-30T07:14:01;18.75;;;12.45;;
64938;SDS011;51453;47.738;7.420;2022-09-30T07:16:28;16.65;;;11.05;;
64938;SDS011;51453;47.738;7.420;2022-09-30T07:18:56;16.85;;;11.85;;
64938;SDS011;51453;47.738;7.420;2022-09-30T07:21:25;16.80;;;11.75;;
64938;SDS011;51453;47.738;7.420;2022-09-30T07:23:50;17.13;;;11.48;;
64938;SDS011;51453;47.738;7.420;2022-09-30T07:26:21;20.50;;;12.25;;
64938;SDS011;51453;47.738;7.420;2022-09-30T07:28:47;19.55;;;11.88;;
64938;SDS011;51453;47.738;7.420;2022-09-30T07:31:15;15.63;;;11.45;;
64938;SDS011;51453;47.738;7.420;2022-09-30T07:33:43;18.15;;;11.38;;
64938;SDS011;51453;47.738;7.420;2022-09-30T07:36:10;14.60;;;11.90;;
64938;SDS011;51453;47.738;7.420;2022-09-30T07:38:38;16.05;;;11.52;;
64938;SDS011;51453;47.738;7.420;2022-09-30T07:41:10;17.70;;;12.00;;
64938;SDS011;51453;47.738;7.420;2022-09-30T07:43:38;15.90;;;12.23;;
64938;SDS011;51453;47.738;7.420;2022-09-30T07:48:49;17.40;;;12.95;;
64938;SDS011;51453;47.738;7.420;2022-09-30T07:53:47;19.00;;;14.00;;
64938;SDS011;51453;47.738;7.420;2022-09-30T07:56:14;20.63;;;14.27;;
64938;SDS011;51453;47.738;7.420;2022-09-30T07:58:41;20.02;;;13.80;;
64938;SDS011;51453;47.738;7.420;2022-09-30T08:01:07;20.45;;;13.82;;
64938;SDS011;51453;47.738;7.420;2022-09-30T08:03:34;21.90;;;14.73;;
64938;SDS011;51453;47.738;7.420;2022-09-30T08:06:07;19.33;;;13.80;;
64938;SDS011;51453;47.738;7.420;2022-09-30T08:08:35;19.23;;;13.30;;
64938;SDS011;51453;47.738;7.420;2022-09-30T08:11:01;23.88;;;14.52;;
64938;SDS011;51453;47.738;7.420;2022-09-30T08:13:28;20.60;;;13.82;;
64938;SDS011;51453;47.738;7.420;2022-09-30T08:15:53;21.92;;;14.52;;
64938;SDS011;51453;47.738;7.420;2022-09-30T08:18:19;19.38;;;12.95;;
64938;SDS011;51453;47.738;7.420;2022-09-30T08:20:45;19.90;;;13.18;;
64938;SDS011;51453;47.738;7.420;2022-09-30T08:23:11;19.40;;;12.70;;
64938;SDS011;51453;47.738;7.420;2022-09-30T08:25:37;17.35;;;12.25;;
64938;SDS011;51453;47.738;7.420;2022-09-30T08:28:02;16.85;;;11.82;;
64938;SDS011;51453;47.738;7.420;2022-09-30T08:30:28;16.05;;;10.65;;
64938;SDS011;51453;47.738;7.420;2022-09-30T08:32:54;15.18;;;10.68;;
64938;SDS011;51453;47.738;7.420;2022-09-30T08:35:19;13.98;;;10.40;;
64938;SDS011;51453;47.738;7.420;2022-09-30T08:37:45;17.25;;;11.10;;
64938;SDS011;51453;47.738;7.420;2022-09-30T08:40:18;16.13;;;10.88;;
64938;SDS011;51453;47.738;7.420;2022-09-30T08:43:06;13.05;;;10.80;;
64938;SDS011;51453;47.738;7.420;2022-09-30T08:53:48;12.00;;;9.55;;
64938;SDS011;51453;47.738;7.420;2022-09-30T08:56:19;12.80;;;10.10;;
64938;SDS011;51453;47.738;7.420;2022-09-30T08:58:55;15.75;;;11.18;;
64938;SDS011;51453;47.738;7.420;2022-09-30T09:01:38;15.05;;;10.38;;
64938;SDS011;51453;47.738;7.420;2022-09-30T09:04:08;15.68;;;10.63;;
64938;SDS011;51453;47.738;7.420;2022-09-30T09:12:30;14.30;;;11.23;;
64938;SDS011;51453;47.738;7.420;2022-09-30T09:15:41;14.38;;;11.15;;
64938;SDS011;51453;47.738;7.420;2022-09-30T09:20:29;12.75;;;10.70;;
64938;SDS011;51453;47.738;7.420;2022-09-30T09:23:01;19.52;;;10.48;;
64938;SDS011;51453;47.738;7.420;2022-09-30T09:25:28;13.63;;;10.73;;
64938;SDS011;51453;47.738;7.420;2022-09-30T09:27:55;12.02;;;10.00;;
64938;SDS011;51453;47.738;7.420;2022-09-30T09:30:25;13.98;;;10.30;;
64938;SDS011;51453;47.738;7.420;2022-09-30T09:33:21;12.20;;;9.80;;
64938;SDS011;51453;47.738;7.420;2022-09-30T09:44:48;12.82;;;10.75;;
64938;SDS011;51453;47.738;7.420;2022-09-30T09:47:16;13.50;;;10.50;;
64938;SDS011;51453;47.738;7.420;2022-09-30T09:54:39;13.23;;;10.27;;
64938;SDS011;51453;47.738;7.420;2022-09-30T09:59:36;10.80;;;9.63;;
64938;SDS011;51453;47.738;7.420;2022-09-30T10:02:22;10.90;;;8.63;;
64938;SDS011;51453;47.738;7.420;2022-09-30T10:04:58;9.43;;;8.45;;
64938;SDS011;51453;47.738;7.420;2022-09-30T10:07:29;11.10;;;8.40;;
64938;SDS011;51453;47.738;7.420;2022-09-30T10:12:44;9.07;;;7.00;;
64938;SDS011;51453;47.738;7.420;2022-09-30T10:17:57;8.40;;;6.70;;
64938;SDS011;51453;47.738;7.420;2022-09-30T10:20:34;10.45;;;7.30;;
64938;SDS011;51453;47.738;7.420;2022-09-30T10:23:06;7.93;;;7.13;;
64938;SDS011;51453;47.738;7.420;2022-09-30T10:25:34;8.23;;;6.05;;
64938;SDS011;51453;47.738;7.420;2022-09-30T10:28:03;8.85;;;6.72;;
64938;SDS011;51453;47.738;7.420;2022-09-30T10:31:10;9.45;;;6.78;;
64938;SDS011;51453;47.738;7.420;2022-09-30T10:33:57;8.70;;;7.80;;
64938;SDS011;51453;47.738;7.420;2022-09-30T10:36:35;8.13;;;6.78;;
64938;SDS011;51453;47.738;7.420;2022-09-30T10:39:07;7.50;;;6.60;;
64938;SDS011;51453;47.738;7.420;2022-09-30T10:41:44;7.88;;;6.50;;
64938;SDS011;51453;47.738;7.420;2022-09-30T10:44:17;7.75;;;6.05;;
64938;SDS011;51453;47.738;7.420;2022-09-30T10:46:46;6.18;;;5.57;;
64938;SDS011;51453;47.738;7.420;2022-09-30T10:49:29;7.38;;;6.07;;
64938;SDS011;51453;47.738;7.420;2022-09-30T10:52:01;10.73;;;6.32;;
64938;SDS011;51453;47.738;7.420;2022-09-30T10:54:50;8.18;;;6.63;;
64938;SDS011;51453;47.738;7.420;2022-09-30T10:57:17;6.78;;;5.72;;
64938;SDS011;51453;47.738;7.420;2022-09-30T10:59:48;8.52;;;6.22;;
64938;SDS011;51453;47.738;7.420;2022-09-30T11:10:13;8.25;;;6.45;;
64938;SDS011;51453;47.738;7.420;2022-09-30T11:13:19;6.90;;;5.90;;
64938;SDS011;51453;47.738;7.420;2022-09-30T11:15:55;6.70;;;6.00;;
64938;SDS011;51453;47.738;7.420;2022-09-30T11:18:24;6.93;;;5.78;;
64938;SDS011;51453;47.738;7.420;2022-09-30T11:21:27;6.72;;;5.80;;
64938;SDS011;51453;47.738;7.420;2022-09-30T11:38:03;6.68;;;5.72;;
64938;SDS011;51453;47.738;7.420;2022-09-30T11:50:58;8.05;;;5.15;;
64938;SDS011;51453;47.738;7.420;2022-09-30T11:59:27;6.10;;;4.60;;
64938;SDS011;51453;47.738;7.420;2022-09-30T12:01:57;8.18;;;4.95;;
64938;SDS011;51453;47.738;7.420;2022-09-30T12:10:11;5.13;;;4.40;;
64938;SDS011;51453;47.738;7.420;2022-09-30T12:12:53;5.15;;;4.22;;
64938;SDS011;51453;47.738;7.420;2022-09-30T12:15:24;6.55;;;4.78;;
64938;SDS011;51453;47.738;7.420;2022-09-30T12:17:57;5.07;;;3.92;;
64938;SDS011;51453;47.738;7.420;2022-09-30T12:23:19;5.07;;;4.07;;
64938;SDS011;51453;47.738;7.420;2022-09-30T12:26:07;5.13;;;4.18;;
64938;SDS011;51453;47.738;7.420;2022-09-30T12:37:19;4.30;;;3.85;;
64938;SDS011;51453;47.738;7.420;2022-09-30T12:49:52;3.78;;;3.47;;
64938;SDS011;51453;47.738;7.420;2022-09-30T12:52:20;4.05;;;3.30;;
64938;SDS011;51453;47.738;7.420;2022-09-30T12:54:54;3.83;;;3.42;;
64938;SDS011;51453;47.738;7.420;2022-09-30T12:57:23;4.70;;;3.08;;
64938;SDS011;51453;47.738;7.420;2022-09-30T12:59:56;5.50;;;3.13;;
64938;SDS011;51453;47.738;7.420;2022-09-30T13:02:39;3.47;;;3.00;;
64938;SDS011;51453;47.738;7.420;2022-09-30T13:20:51;5.88;;;2.95;;
64938;SDS011;51453;47.738;7.420;2022-09-30T13:28:52;5.90;;;3.15;;
64938;SDS011;51453;47.738;7.420;2022-09-30T13:34:11;2.97;;;2.67;;
64938;SDS011;51453;47.738;7.420;2022-09-30T13:42:26;2.60;;;2.10;;
64938;SDS011;51453;47.738;7.420;2022-09-30T13:44:58;2.92;;;2.63;;
64938;SDS011;51453;47.738;7.420;2022-09-30T13:47:43;2.38;;;2.17;;
64938;SDS011;51453;47.738;7.420;2022-09-30T13:50:19;3.10;;;2.30;;
64938;SDS011;51453;47.738;7.420;2022-09-30T13:52:50;3.13;;;1.95;;
64938;SDS011;51453;47.738;7.420;2022-09-30T13:57:58;2.30;;;2.10;;
64938;SDS011;51453;47.738;7.420;2022-09-30T14:09:21;3.05;;;2.22;;
64938;SDS011;51453;47.738;7.420;2022-09-30T14:22:41;9.13;;;2.08;;
64938;SDS011;51453;47.738;7.420;2022-09-30T14:25:18;1.98;;;1.40;;
64938;SDS011;51453;47.738;7.420;2022-09-30T14:30:39;1.40;;;1.30;;
64938;SDS011;51453;47.738;7.420;2022-09-30T14:33:11;2.47;;;1.63;;
64938;SDS011;51453;47.738;7.420;2022-09-30T14:35:50;2.67;;;1.90;;
64938;SDS011;51453;47.738;7.420;2022-09-30T14:38:18;2.63;;;1.67;;
64938;SDS011;51453;47.738;7.420;2022-09-30T14:40:54;1.83;;;1.40;;
64938;SDS011;51453;47.738;7.420;2022-09-30T14:43:31;1.35;;;1.20;;
64938;SDS011;51453;47.738;7.420;2022-09-30T14:49:13;2.80;;;1.73;;
64938;SDS011;51453;47.738;7.420;2022-09-30T14:51:44;1.30;;;1.20;;
64938;SDS011;51453;47.738;7.420;2022-09-30T14:54:22;1.80;;;1.20;;
64938;SDS011;51453;47.738;7.420;2022-09-30T14:56:50;2.58;;;1.33;;
64938;SDS011;51453;47.738;7.420;2022-09-30T14:59:27;2.42;;;1.42;;
64938;SDS011;51453;47.738;7.420;2022-09-30T15:01:57;2.42;;;1.40;;
64938;SDS011;51453;47.738;7.420;2022-09-30T15:04:30;2.05;;;1.23;;
64938;SDS011;51453;47.738;7.420;2022-09-30T15:06:58;1.63;;;1.52;;
64938;SDS011;51453;47.738;7.420;2022-09-30T15:09:28;1.83;;;1.73;;
64938;SDS011;51453;47.738;7.420;2022-09-30T15:12:19;3.38;;;1.70;;
64938;SDS011;51453;47.738;7.420;2022-09-30T15:17:16;2.38;;;1.40;;
64938;SDS011;51453;47.738;7.420;2022-09-30T15:19:47;1.60;;;1.50;;
64938;SDS011;51453;47.738;7.420;2022-09-30T15:22:14;2.28;;;1.65;;
64938;SDS011;51453;47.738;7.420;2022-09-30T15:24:41;5.28;;;2.08;;
64938;SDS011;51453;47.738;7.420;2022-09-30T15:29:54;3.63;;;1.80;;
64938;SDS011;51453;47.738;7.420;2022-09-30T15:32:21;2.25;;;1.80;;
64938;SDS011;51453;47.738;7.420;2022-09-30T15:34:48;1.98;;;1.88;;
64938;SDS011;51453;47.738;7.420;2022-09-30T15:37:21;2.25;;;2.05;;
64938;SDS011;51453;47.738;7.420;2022-09-30T15:39:49;4.65;;;2.20;;
64938;SDS011;51453;47.738;7.420;2022-09-30T15:42:35;1.95;;;1.80;;
64938;SDS011;51453;47.738;7.420;2022-09-30T15:47:55;3.92;;;1.67;;
64938;SDS011;51453;47.738;7.420;2022-09-30T15:50:35;2.08;;;1.80;;
64938;SDS011;51453;47.738;7.420;2022-09-30T15:55:44;2.78;;;1.70;;
64938;SDS011;51453;47.738;7.420;2022-09-30T15:58:31;2.85;;;1.73;;
64938;SDS011;51453;47.738;7.420;2022-09-30T16:03:40;4.65;;;1.90;;
64938;SDS011;51453;47.738;7.420;2022-09-30T16:06:13;2.47;;;1.55;;
64938;SDS011;51453;47.738;7.420;2022-09-30T16:08:41;2.08;;;1.88;;
64938;SDS011;51453;47.738;7.420;2022-09-30T16:11:22;2.38;;;1.65;;
64938;SDS011;51453;47.738;7.420;2022-09-30T16:13:51;2.03;;;1.52;;
64938;SDS011;51453;47.738;7.420;2022-09-30T16:16:29;1.88;;;1.35;;
64938;SDS011;51453;47.738;7.420;2022-09-30T16:18:57;1.77;;;1.67;;
64938;SDS011;51453;47.738;7.420;2022-09-30T16:23:55;2.15;;;1.50;;
64938;SDS011;51453;47.738;7.420;2022-09-30T16:26:21;3.65;;;1.60;;
64938;SDS011;51453;47.738;7.420;2022-09-30T16:28:53;2.42;;;1.40;;
64938;SDS011;51453;47.738;7.420;2022-09-30T16:31:20;2.83;;;1.60;;
64938;SDS011;51453;47.738;7.420;2022-09-30T16:33:47;2.35;;;1.40;;
64938;SDS011;51453;47.738;7.420;2022-09-30T16:36:13;1.80;;;1.70;;
64938;SDS011;51453;47.738;7.420;2022-09-30T16:38:39;3.35;;;1.45;;
64938;SDS011;51453;47.738;7.420;2022-09-30T16:41:09;3.67;;;2.05;;
64938;SDS011;51453;47.738;7.420;2022-09-30T16:43:36;4.53;;;2.50;;
64938;SDS011;51453;47.738;7.420;2022-09-30T16:46:03;1.98;;;1.75;;
64938;SDS011;51453;47.738;7.420;2022-09-30T16:48:29;2.90;;;1.98;;
64938;SDS011;51453;47.738;7.420;2022-09-30T16:53:40;1.70;;;1.60;;
64938;SDS011;51453;47.738;7.420;2022-09-30T16:56:17;7.20;;;2.88;;
64938;SDS011;51453;47.738;7.420;2022-09-30T16:58:43;5.18;;;2.78;;
64938;SDS011;51453;47.738;7.420;2022-09-30T17:01:20;2.50;;;2.30;;
64938;SDS011;51453;47.738;7.420;2022-09-30T17:03:47;5.35;;;1.98;;
64938;SDS011;51453;47.738;7.420;2022-09-30T17:06:14;3.25;;;1.92;;
64938;SDS011;51453;47.738;7.420;2022-09-30T17:08:42;2.30;;;1.80;;
64938;SDS011;51453;47.738;7.420;2022-09-30T17:11:09;3.58;;;1.58;;
64938;SDS011;51453;47.738;7.420;2022-09-30T17:13:36;2.05;;;1.48;;
64938;SDS011;51453;47.738;7.420;2022-09-30T17:16:01;2.88;;;1.73;;
64938;SDS011;51453;47.738;7.420;2022-09-30T17:18:27;1.65;;;1.40;;
64938;SDS011;51453;47.738;7.420;2022-09-30T17:20:53;3.35;;;2.78;;
64938;SDS011;51453;47.738;7.420;2022-09-30T17:23:20;3.70;;;2.67;;
64938;SDS011;51453;47.738;7.420;2022-09-30T17:25:47;3.53;;;2.67;;
64938;SDS011;51453;47.738;7.420;2022-09-30T17:28:13;3.00;;;2.70;;
64938;SDS011;51453;47.738;7.420;2022-09-30T17:30:40;5.60;;;3.42;;
64938;SDS011;51453;47.738;7.420;2022-09-30T17:33:12;4.20;;;3.67;;
64938;SDS011;51453;47.738;7.420;2022-09-30T17:35:38;7.00;;;3.97;;
64938;SDS011;51453;47.738;7.420;2022-09-30T17:38:08;6.57;;;4.88;;
64938;SDS011;51453;47.738;7.420;2022-09-30T17:43:20;8.95;;;5.97;;
64938;SDS011;51453;47.738;7.420;2022-09-30T17:45:46;11.13;;;5.45;;
64938;SDS011;51453;47.738;7.420;2022-09-30T17:48:13;8.07;;;4.90;;
64938;SDS011;51453;47.738;7.420;2022-09-30T17:50:44;7.65;;;4.93;;
64938;SDS011;51453;47.738;7.420;2022-09-30T17:55:38;7.22;;;4.97;;
64938;SDS011;51453;47.738;7.420;2022-09-30T17:58:08;7.13;;;5.07;;
64938;SDS011;51453;47.738;7.420;2022-09-30T18:00:36;8.73;;;5.40;;
64938;SDS011;51453;47.738;7.420;2022-09-30T18:03:02;11.27;;;5.40;;
64938;SDS011;51453;47.738;7.420;2022-09-30T18:05:28;11.30;;;6.53;;
64938;SDS011;51453;47.738;7.420;2022-09-30T18:07:55;10.43;;;6.60;;
64938;SDS011;51453;47.738;7.420;2022-09-30T18:10:21;12.10;;;6.95;;
64938;SDS011;51453;47.738;7.420;2022-09-30T18:12:48;10.90;;;6.18;;
64938;SDS011;51453;47.738;7.420;2022-09-30T18:15:16;10.65;;;7.65;;
64938;SDS011;51453;47.738;7.420;2022-09-30T18:17:42;17.95;;;12.15;;
64938;SDS011;51453;47.738;7.420;2022-09-30T18:20:07;11.77;;;8.50;;
64938;SDS011;51453;47.738;7.420;2022-09-30T18:22:34;12.35;;;8.88;;
64938;SDS011;51453;47.738;7.420;2022-09-30T18:25:00;22.70;;;14.93;;
64938;SDS011;51453;47.738;7.420;2022-09-30T18:27:44;25.17;;;16.05;;
64938;SDS011;51453;47.738;7.420;2022-09-30T18:30:22;32.58;;;21.08;;
64938;SDS011;51453;47.738;7.420;2022-09-30T18:32:49;28.63;;;17.08;;
64938;SDS011;51453;47.738;7.420;2022-09-30T18:35:17;15.57;;;10.07;;
64938;SDS011;51453;47.738;7.420;2022-09-30T18:37:45;8.77;;;6.13;;
64938;SDS011;51453;47.738;7.420;2022-09-30T18:40:13;5.07;;;4.05;;
64938;SDS011;51453;47.738;7.420;2022-09-30T18:42:41;3.92;;;3.53;;
64938;SDS011;51453;47.738;7.420;2022-09-30T18:45:08;3.40;;;3.10;;
64938;SDS011;51453;47.738;7.420;2022-09-30T18:47:36;3.25;;;2.95;;
64938;SDS011;51453;47.738;7.420;2022-09-30T18:50:07;4.45;;;4.03;;
64938;SDS011;51453;47.738;7.420;2022-09-30T18:52:33;11.05;;;7.70;;
64938;SDS011;51453;47.738;7.420;2022-09-30T18:54:59;19.52;;;13.05;;
64938;SDS011;51453;47.738;7.420;2022-09-30T18:57:25;17.63;;;13.15;;
64938;SDS011;51453;47.738;7.420;2022-09-30T18:59:51;19.00;;;12.63;;
64938;SDS011;51453;47.738;7.420;2022-09-30T19:02:17;16.92;;;12.40;;